createdAt,value
2018-03-23T00:00:27.455Z,0
2018-03-23T00:01:07.904Z,0
2018-03-23T00:01:48.268Z,0
2018-03-23T00:02:28.678Z,0
2018-03-23T00:03:09.117Z,0
2018-03-23T00:03:49.472Z,0
2018-03-23T00:04:29.900Z,0
2018-03-23T00:05:10.269Z,0
2018-03-23T00:05:50.674Z,0
2018-03-23T00:06:31.029Z,0
2018-03-23T00:07:11.435Z,0
2018-03-23T00:07:51.845Z,0
2018-03-23T00:08:32.211Z,0
2018-03-23T00:09:12.605Z,0
2018-03-23T00:09:52.983Z,0
2018-03-23T00:10:33.414Z,0
2018-03-23T00:11:13.869Z,0
2018-03-23T00:11:54.180Z,0
2018-03-23T00:12:34.588Z,0
2018-03-23T00:13:14.986Z,0
2018-03-23T00:13:55.398Z,0
2018-03-23T00:14:35.758Z,0
2018-03-23T00:15:16.162Z,0
2018-03-23T00:15:56.555Z,0
2018-03-23T00:16:36.926Z,0
2018-03-23T00:17:17.317Z,0
2018-03-23T00:17:57.687Z,0
2018-03-23T00:18:38.085Z,0
2018-03-23T00:19:18.474Z,0
2018-03-23T00:19:58.969Z,0
2018-03-23T00:20:39.318Z,0
2018-03-23T00:21:19.644Z,0
2018-03-23T00:22:00.066Z,0
2018-03-23T00:22:40.481Z,0
2018-03-23T00:23:20.835Z,0
2018-03-23T00:24:01.268Z,0
2018-03-23T00:24:41.630Z,0
2018-03-23T00:25:22.002Z,0
2018-03-23T00:26:02.411Z,0
2018-03-23T00:26:42.806Z,0
2018-03-23T00:27:23.175Z,0
2018-03-23T00:28:03.646Z,0
2018-03-23T00:28:44.816Z,0
2018-03-23T00:29:24.736Z,0
2018-03-23T00:30:05.100Z,0
2018-03-23T00:30:45.549Z,0
2018-03-23T00:31:25.980Z,0
2018-03-23T00:32:06.303Z,0
2018-03-23T00:32:46.735Z,0
2018-03-23T00:33:27.081Z,0
2018-03-23T00:34:07.536Z,0
2018-03-23T00:34:47.869Z,0
2018-03-23T00:35:28.270Z,0
2018-03-23T00:36:08.671Z,0
2018-03-23T00:36:49.032Z,0
2018-03-23T00:37:29.446Z,0
2018-03-23T00:38:09.768Z,0
2018-03-23T00:38:50.188Z,0
2018-03-23T00:39:30.555Z,0
2018-03-23T00:40:10.974Z,0
2018-03-23T00:40:51.364Z,0
2018-03-23T00:41:31.734Z,0
2018-03-23T00:42:12.087Z,0
2018-03-23T00:42:52.550Z,0
2018-03-23T00:43:32.926Z,0
2018-03-23T00:44:13.249Z,0
2018-03-23T00:44:53.677Z,0
2018-03-23T00:45:34.049Z,0
2018-03-23T00:46:14.390Z,0
2018-03-23T00:46:54.815Z,0
2018-03-23T00:47:35.229Z,0
2018-03-23T00:48:15.567Z,0
2018-03-23T00:48:55.989Z,0
2018-03-23T00:49:36.387Z,0
2018-03-23T00:50:16.723Z,0
2018-03-23T00:50:57.168Z,0
2018-03-23T00:51:37.589Z,0
2018-03-23T00:52:17.940Z,0
2018-03-23T00:52:58.322Z,0
2018-03-23T00:53:38.748Z,0
2018-03-23T00:54:19.118Z,0
2018-03-23T00:54:59.819Z,0
2018-03-23T00:55:40.289Z,0
2018-03-23T00:56:20.941Z,0
2018-03-23T00:57:01.232Z,0
2018-03-23T00:57:41.616Z,0
2018-03-23T00:58:21.980Z,0
2018-03-23T00:59:02.401Z,0
2018-03-23T00:59:42.843Z,0
2018-03-23T01:00:23.143Z,0
2018-03-23T01:01:03.560Z,0
2018-03-23T01:01:43.926Z,0
2018-03-23T01:02:24.336Z,0
2018-03-23T01:03:04.765Z,0
2018-03-23T01:03:45.173Z,0
2018-03-23T01:04:25.609Z,0
2018-03-23T01:05:05.999Z,0
2018-03-23T01:05:46.416Z,0
2018-03-23T01:06:26.803Z,0
2018-03-23T01:07:07.169Z,0
2018-03-23T01:07:47.626Z,0
2018-03-23T01:08:28.660Z,0
2018-03-23T01:09:08.764Z,0
2018-03-23T01:09:49.124Z,0
2018-03-23T01:10:29.490Z,0
2018-03-23T01:11:09.857Z,0
2018-03-23T01:11:50.303Z,0
2018-03-23T01:12:30.653Z,0
2018-03-23T01:13:11.053Z,0
2018-03-23T01:13:51.448Z,0
2018-03-23T01:14:31.894Z,0
2018-03-23T01:15:12.293Z,0
2018-03-23T01:15:52.627Z,0
2018-03-23T01:16:33.051Z,0
2018-03-23T01:17:13.500Z,0
2018-03-23T01:17:53.828Z,0
2018-03-23T01:18:34.165Z,0
2018-03-23T01:19:14.621Z,0
2018-03-23T01:19:55.019Z,0
2018-03-23T01:20:35.367Z,0
2018-03-23T01:21:15.794Z,0
2018-03-23T01:21:56.194Z,0
2018-03-23T01:22:36.584Z,0
2018-03-23T01:23:16.910Z,0
2018-03-23T01:23:57.322Z,0
2018-03-23T01:24:37.807Z,0
2018-03-23T01:25:18.143Z,0
2018-03-23T01:25:58.564Z,0
2018-03-23T01:26:39.092Z,0
2018-03-23T01:27:19.472Z,0
2018-03-23T01:27:59.841Z,0
2018-03-23T01:28:40.252Z,0
2018-03-23T01:29:20.643Z,0
2018-03-23T01:30:01.044Z,0
2018-03-23T01:30:41.431Z,0
2018-03-23T01:31:21.879Z,0
2018-03-23T01:32:02.269Z,0
2018-03-23T01:32:42.677Z,0
2018-03-23T01:33:23.163Z,0
2018-03-23T01:34:03.471Z,0
2018-03-23T01:34:43.910Z,0
2018-03-23T01:35:24.551Z,0
2018-03-23T01:36:05.660Z,0
2018-03-23T01:36:46.052Z,0
2018-03-23T01:37:26.378Z,0
2018-03-23T01:38:06.772Z,0
2018-03-23T01:38:47.191Z,0
2018-03-23T01:39:27.596Z,0
2018-03-23T01:40:08.026Z,0
2018-03-23T01:40:48.358Z,0
2018-03-23T01:41:28.761Z,0
2018-03-23T01:42:09.205Z,0
2018-03-23T01:42:49.592Z,0
2018-03-23T01:43:29.944Z,0
2018-03-23T01:44:10.398Z,0
2018-03-23T01:44:50.758Z,0
2018-03-23T01:45:31.176Z,0
2018-03-23T01:46:11.492Z,0
2018-03-23T01:46:51.945Z,0
2018-03-23T01:47:32.318Z,0
2018-03-23T01:48:12.740Z,0
2018-03-23T01:48:53.078Z,0
2018-03-23T01:49:33.485Z,0
2018-03-23T01:50:13.901Z,0
2018-03-23T01:50:54.361Z,0
2018-03-23T01:51:34.760Z,0
2018-03-23T01:52:15.136Z,0
2018-03-23T01:52:55.560Z,0
2018-03-23T01:53:35.959Z,0
2018-03-23T01:54:16.371Z,0
2018-03-23T01:54:56.759Z,0
2018-03-23T01:55:37.186Z,0
2018-03-23T01:56:17.616Z,0
2018-03-23T01:56:58.011Z,0
2018-03-23T01:57:38.368Z,0
2018-03-23T01:58:18.724Z,0
2018-03-23T01:58:59.154Z,0
2018-03-23T01:59:39.507Z,0
2018-03-23T02:00:19.936Z,0
2018-03-23T02:01:00.335Z,0
2018-03-23T02:01:40.754Z,0
2018-03-23T02:02:21.092Z,0
2018-03-23T02:03:01.580Z,0
2018-03-23T02:03:41.960Z,0
2018-03-23T02:04:22.352Z,0
2018-03-23T02:05:02.738Z,0
2018-03-23T02:05:43.188Z,0
2018-03-23T02:06:23.467Z,0
2018-03-23T02:07:03.924Z,0
2018-03-23T02:07:44.322Z,0
2018-03-23T02:08:24.756Z,0
2018-03-23T02:09:05.141Z,0
2018-03-23T02:09:45.734Z,0
2018-03-23T02:10:26.002Z,0
2018-03-23T02:11:06.402Z,0
2018-03-23T02:11:46.741Z,0
2018-03-23T02:12:27.194Z,0
2018-03-23T02:13:07.535Z,0
2018-03-23T02:13:48.090Z,0
2018-03-23T02:14:29.083Z,0
2018-03-23T02:15:09.536Z,0
2018-03-23T02:15:49.975Z,0
2018-03-23T02:16:30.405Z,0
2018-03-23T02:17:12.079Z,0
2018-03-23T02:17:52.469Z,0
2018-03-23T02:18:32.942Z,0
2018-03-23T02:19:13.259Z,0
2018-03-23T02:19:53.665Z,0
2018-03-23T02:20:34.117Z,0
2018-03-23T02:21:14.494Z,0
2018-03-23T02:21:54.874Z,0
2018-03-23T02:22:35.283Z,0
2018-03-23T02:23:15.735Z,0
2018-03-23T02:23:56.072Z,0
2018-03-23T02:24:36.510Z,0
2018-03-23T02:25:16.959Z,0
2018-03-23T02:25:57.296Z,0
2018-03-23T02:28:25.196Z,0
2018-03-23T02:29:06.528Z,0
2018-03-23T02:29:46.498Z,0
2018-03-23T02:30:27.394Z,0
2018-03-23T02:31:07.907Z,0
2018-03-23T02:31:48.548Z,0
2018-03-23T02:32:29.033Z,0
2018-03-23T02:33:09.351Z,0
2018-03-23T02:33:49.705Z,0
2018-03-23T02:34:30.100Z,0
2018-03-23T02:35:10.580Z,0
2018-03-23T02:35:50.992Z,0
2018-03-23T02:36:31.476Z,0
2018-03-23T02:37:11.775Z,0
2018-03-23T02:37:52.316Z,0
2018-03-23T02:38:32.597Z,0
2018-03-23T02:39:13.025Z,0
2018-03-23T02:39:53.318Z,0
2018-03-23T02:40:33.790Z,0
2018-03-23T02:41:14.270Z,0
2018-03-23T02:41:54.676Z,0
2018-03-23T02:42:35.153Z,0
2018-03-23T02:43:15.644Z,0
2018-03-23T02:43:55.880Z,0
2018-03-23T02:44:36.391Z,0
2018-03-23T02:45:16.833Z,0
2018-03-23T02:45:57.177Z,0
2018-03-23T02:46:37.592Z,0
2018-03-23T02:47:18.132Z,0
2018-03-23T02:47:58.384Z,0
2018-03-23T02:48:39.041Z,0
2018-03-23T02:49:19.298Z,0
2018-03-23T02:49:59.715Z,0
2018-03-23T02:50:40.265Z,0
2018-03-23T02:51:20.614Z,0
2018-03-23T02:52:01.034Z,0
2018-03-23T02:52:41.471Z,0
2018-03-23T02:53:21.897Z,0
2018-03-23T02:54:02.508Z,0
2018-03-23T02:54:42.894Z,0
2018-03-23T02:55:23.207Z,0
2018-03-23T02:56:03.689Z,0
2018-03-23T02:56:44.106Z,0
2018-03-23T02:57:24.747Z,0
2018-03-23T02:58:05.132Z,0
2018-03-23T02:58:45.534Z,0
2018-03-23T02:59:25.978Z,0
2018-03-23T03:00:06.308Z,0
2018-03-23T03:00:46.996Z,0
2018-03-23T03:01:27.401Z,0
2018-03-23T03:02:07.732Z,0
2018-03-23T03:02:48.060Z,0
2018-03-23T03:03:28.488Z,0
2018-03-23T03:04:08.903Z,0
2018-03-23T03:04:49.354Z,0
2018-03-23T03:05:29.863Z,0
2018-03-23T03:06:10.490Z,0
2018-03-23T03:06:50.855Z,0
2018-03-23T03:07:31.847Z,0
2018-03-23T03:08:12.237Z,0
2018-03-23T03:08:52.767Z,0
2018-03-23T03:09:33.167Z,0
2018-03-23T03:10:13.542Z,0
2018-03-23T03:10:54.005Z,0
2018-03-23T03:11:34.392Z,0
2018-03-23T03:12:14.782Z,0
2018-03-23T03:12:55.300Z,0
2018-03-23T03:13:35.793Z,0
2018-03-23T03:14:16.184Z,0
2018-03-23T03:14:56.710Z,0
2018-03-23T03:15:37.070Z,0
2018-03-23T03:16:18.395Z,0
2018-03-23T03:16:58.763Z,0
2018-03-23T03:17:39.288Z,0
2018-03-23T03:18:19.579Z,0
2018-03-23T03:18:59.917Z,0
2018-03-23T03:19:40.527Z,0
2018-03-23T03:20:20.768Z,0
2018-03-23T03:21:01.356Z,0
2018-03-23T03:21:41.692Z,0
2018-03-23T03:22:22.046Z,0
2018-03-23T03:23:02.677Z,0
2018-03-23T03:23:43.467Z,0
2018-03-23T03:24:23.998Z,0
2018-03-23T03:25:04.542Z,0
2018-03-23T03:25:45.207Z,0
2018-03-23T03:26:25.736Z,0
2018-03-23T03:27:05.981Z,0
2018-03-23T03:27:46.497Z,0
2018-03-23T03:28:26.889Z,0
2018-03-23T03:29:07.302Z,0
2018-03-23T03:29:48.056Z,0
2018-03-23T03:30:28.483Z,0
2018-03-23T03:31:09.345Z,0
2018-03-23T03:31:50.733Z,0
2018-03-23T03:32:31.367Z,0
2018-03-23T03:33:11.900Z,0
2018-03-23T03:33:53.973Z,0
2018-03-23T03:34:35.015Z,0
2018-03-23T03:35:15.766Z,0
2018-03-23T03:35:56.521Z,0
2018-03-23T03:36:37.081Z,0
2018-03-23T03:37:17.477Z,0
2018-03-23T03:37:57.972Z,0
2018-03-23T03:38:38.644Z,0
2018-03-23T03:42:36.133Z,0
2018-03-23T03:44:51.717Z,0
2018-03-23T03:45:32.388Z,0
2018-03-23T03:46:12.633Z,0
2018-03-23T03:46:53.013Z,0
2018-03-23T03:47:33.743Z,0
2018-03-23T03:48:13.982Z,0
2018-03-23T03:48:54.349Z,0
2018-03-23T03:49:34.719Z,0
2018-03-23T03:50:15.062Z,0
2018-03-23T03:50:55.535Z,0
2018-03-23T03:51:35.980Z,0
2018-03-23T03:52:16.337Z,0
2018-03-23T03:52:56.737Z,0
2018-03-23T03:53:37.434Z,0
2018-03-23T03:54:17.715Z,0
2018-03-23T03:54:58.955Z,0
2018-03-23T03:55:39.688Z,0
2018-03-23T03:56:20.297Z,0
2018-03-23T03:57:00.620Z,0
2018-03-23T03:57:41.593Z,0
2018-03-23T03:58:21.963Z,0
2018-03-23T03:59:02.384Z,0
2018-03-23T03:59:43.196Z,0
2018-03-23T04:00:23.495Z,0
2018-03-23T04:01:03.889Z,0
2018-03-23T04:01:44.920Z,0
2018-03-23T04:02:26.943Z,0
2018-03-23T04:03:07.503Z,0
2018-03-23T04:03:47.886Z,0
2018-03-23T04:04:28.140Z,0
2018-03-23T04:05:09.032Z,0
2018-03-23T04:05:49.588Z,0
2018-03-23T04:06:30.365Z,0
2018-03-23T04:07:10.625Z,0
2018-03-23T04:07:50.991Z,0
2018-03-23T04:46:13.380Z,0
2018-03-23T04:46:53.609Z,0
2018-03-23T04:47:35.439Z,0
2018-03-23T04:48:15.608Z,0
2018-03-23T04:48:55.964Z,0
2018-03-23T04:49:36.396Z,0
2018-03-23T04:50:16.769Z,0
2018-03-23T04:50:57.157Z,0
2018-03-23T04:51:37.530Z,0
2018-03-23T04:52:18.095Z,0
2018-03-23T04:52:58.476Z,0
2018-03-23T04:53:38.856Z,0
2018-03-23T04:54:19.253Z,0
2018-03-23T04:54:59.612Z,0
2018-03-23T04:55:40.027Z,0
2018-03-23T04:56:20.491Z,0
2018-03-23T04:57:00.828Z,0
2018-03-23T04:57:41.178Z,0
2018-03-23T04:58:21.607Z,0
2018-03-23T04:59:01.990Z,0
2018-03-23T04:59:42.870Z,0
2018-03-23T05:00:23.229Z,0
2018-03-23T05:01:03.596Z,0
2018-03-23T05:01:44.759Z,0
2018-03-23T05:02:25.109Z,0
2018-03-23T05:03:05.590Z,0
2018-03-23T05:03:45.900Z,0
2018-03-23T05:04:26.345Z,0
2018-03-23T05:05:06.755Z,0
2018-03-23T05:05:47.156Z,0
2018-03-23T05:06:27.503Z,0
2018-03-23T05:07:07.890Z,0
2018-03-23T05:07:48.333Z,0
2018-03-23T05:08:28.844Z,0
2018-03-23T05:09:09.143Z,0
2018-03-23T05:09:49.468Z,0
2018-03-23T05:10:30.411Z,0
2018-03-23T05:11:10.837Z,0
2018-03-23T05:11:52.203Z,0
2018-03-23T05:12:32.617Z,0
2018-03-23T05:13:13.979Z,0
2018-03-23T05:13:54.280Z,0
2018-03-23T05:14:34.620Z,0
2018-03-23T05:15:15.054Z,0
2018-03-23T05:15:55.406Z,0
2018-03-23T05:16:35.920Z,0
2018-03-23T05:17:16.216Z,0
2018-03-23T05:17:56.756Z,0
2018-03-23T05:18:37.846Z,0
2018-03-23T05:19:18.200Z,0
2018-03-23T05:19:58.582Z,0
2018-03-23T05:20:39.104Z,0
2018-03-23T05:21:19.515Z,0
2018-03-23T05:21:59.896Z,0
2018-03-23T05:22:41.828Z,0
2018-03-23T05:23:22.060Z,0
2018-03-23T05:24:02.405Z,0
2018-03-23T05:24:42.926Z,4
2018-03-23T05:25:23.262Z,4
2018-03-23T05:26:03.869Z,4
2018-03-23T05:26:44.137Z,4
2018-03-23T05:27:24.529Z,4
2018-03-23T05:28:05.425Z,4
2018-03-23T05:28:46.626Z,4
2018-03-23T05:29:27.120Z,0
2018-03-23T05:30:07.846Z,0
2018-03-23T05:30:48.377Z,0
2018-03-23T05:31:29.462Z,4
2018-03-23T05:32:10.247Z,4
2018-03-23T05:32:51.247Z,4
2018-03-23T05:33:33.538Z,4
2018-03-23T05:34:14.279Z,4
2018-03-23T05:34:55.115Z,8
2018-03-23T05:35:36.608Z,8
2018-03-23T05:36:16.647Z,4
2018-03-23T05:36:57.077Z,4
2018-03-23T05:37:37.485Z,4
2018-03-23T05:38:18.094Z,8
2018-03-23T05:38:58.575Z,8
2018-03-23T05:39:40.893Z,8
2018-03-23T05:40:23.870Z,12
2018-03-23T05:41:06.392Z,8
2018-03-23T05:41:45.555Z,8
2018-03-23T05:42:28.339Z,12
2018-03-23T05:43:09.273Z,12
2018-03-23T05:43:50.465Z,12
2018-03-23T05:44:31.506Z,12
2018-03-23T05:45:12.191Z,12
2018-03-23T05:45:53.566Z,12
2018-03-23T05:46:33.902Z,16
2018-03-23T05:47:14.307Z,16
2018-03-23T05:47:57.486Z,16
2018-03-23T05:48:37.946Z,20
2018-03-23T05:49:18.411Z,16
2018-03-23T05:49:59.933Z,20
2018-03-23T05:50:40.323Z,20
2018-03-23T05:51:20.708Z,20
2018-03-23T05:52:03.255Z,24
2018-03-23T05:52:43.729Z,20
2018-03-23T05:53:24.986Z,24
2018-03-23T05:54:04.910Z,24
2018-03-23T05:54:45.865Z,28
2018-03-23T05:55:26.823Z,28
2018-03-23T05:56:08.316Z,28
2018-03-23T05:56:48.690Z,28
2018-03-23T05:57:29.608Z,28
2018-03-23T05:58:09.966Z,32
2018-03-23T05:58:50.810Z,32
2018-03-23T05:59:30.871Z,36
2018-03-23T06:00:12.164Z,36
2018-03-23T06:00:54.405Z,36
2018-03-23T06:01:35.856Z,36
2018-03-23T06:02:16.270Z,40
2018-03-23T06:02:56.680Z,40
2018-03-23T06:03:52.221Z,44
2018-03-23T06:04:32.684Z,48
2018-03-23T06:05:13.132Z,48
2018-03-23T06:05:54.065Z,48
2018-03-23T06:06:34.623Z,48
2018-03-23T06:07:14.964Z,48
2018-03-23T06:07:55.514Z,48
2018-03-23T06:08:36.166Z,48
2018-03-23T06:09:17.323Z,52
2018-03-23T06:09:57.447Z,52
2018-03-23T06:10:37.844Z,56
2018-03-23T06:11:18.268Z,56
2018-03-23T06:11:58.841Z,56
2018-03-23T06:12:41.070Z,56
2018-03-23T06:13:21.345Z,56
2018-03-23T06:14:04.969Z,56
2018-03-23T06:14:44.644Z,60
2018-03-23T06:15:24.983Z,56
2018-03-23T06:16:06.087Z,56
2018-03-23T06:16:46.542Z,56
2018-03-23T06:17:27.030Z,56
2018-03-23T06:18:07.919Z,56
2018-03-23T06:18:48.312Z,60
2018-03-23T06:19:28.732Z,64
2018-03-23T06:20:09.115Z,64
2018-03-23T06:20:49.477Z,64
2018-03-23T06:21:29.962Z,68
2018-03-23T06:22:10.307Z,72
2018-03-23T06:22:51.006Z,76
2018-03-23T06:23:31.570Z,80
2018-03-23T06:24:12.480Z,80
2018-03-23T06:24:52.402Z,84
2018-03-23T06:25:32.792Z,84
2018-03-23T06:26:13.232Z,88
2018-03-23T06:26:53.728Z,92
2018-03-23T06:27:34.013Z,100
2018-03-23T06:28:14.397Z,100
2018-03-23T06:28:54.842Z,100
2018-03-23T06:29:35.344Z,100
2018-03-23T06:30:17.198Z,96
2018-03-23T06:30:57.507Z,92
2018-03-23T06:31:37.905Z,92
2018-03-23T06:32:19.764Z,88
2018-03-23T06:33:03.423Z,92
2018-03-23T06:33:43.223Z,96
2018-03-23T06:34:23.726Z,100
2018-03-23T06:35:04.054Z,100
2018-03-23T06:35:45.517Z,108
2018-03-23T06:36:25.236Z,116
2018-03-23T06:37:05.584Z,112
2018-03-23T06:37:46.134Z,112
2018-03-23T06:38:27.882Z,112
2018-03-23T06:39:08.747Z,112
2018-03-23T06:39:49.226Z,112
2018-03-23T06:40:29.743Z,116
2018-03-23T06:41:10.117Z,120
2018-03-23T06:41:50.578Z,116
2018-03-23T06:42:31.000Z,112
2018-03-23T06:43:11.379Z,116
2018-03-23T06:43:51.796Z,124
2018-03-23T06:44:32.238Z,128
2018-03-23T06:45:12.535Z,132
2018-03-23T06:45:52.929Z,136
2018-03-23T06:46:33.375Z,132
2018-03-23T06:47:13.798Z,136
2018-03-23T06:47:54.181Z,136
2018-03-23T06:48:34.622Z,144
2018-03-23T06:49:17.677Z,148
2018-03-23T06:49:57.410Z,156
2018-03-23T06:50:37.811Z,164
2018-03-23T06:51:18.334Z,172
2018-03-23T06:51:59.059Z,184
2018-03-23T06:52:41.428Z,192
2018-03-23T06:53:23.011Z,200
2018-03-23T06:54:03.416Z,212
2018-03-23T06:54:43.897Z,220
2018-03-23T06:55:26.761Z,236
2018-03-23T06:56:06.258Z,248
2018-03-23T06:56:46.744Z,264
2018-03-23T06:57:28.112Z,272
2018-03-23T06:58:08.337Z,280
2018-03-23T06:58:49.288Z,276
2018-03-23T06:59:29.868Z,276
2018-03-23T07:00:10.712Z,276
2018-03-23T07:00:51.484Z,284
2018-03-23T07:01:33.008Z,296
2018-03-23T07:02:14.035Z,316
2018-03-23T07:02:54.108Z,328
2018-03-23T07:03:34.881Z,344
2018-03-23T07:04:16.499Z,368
2018-03-23T07:04:56.820Z,396
2018-03-23T07:05:37.300Z,472
2018-03-23T07:06:17.867Z,552
2018-03-23T07:06:58.120Z,624
2018-03-23T07:07:38.548Z,676
2018-03-23T07:08:19.081Z,696
2018-03-23T07:08:59.470Z,724
2018-03-23T07:09:40.853Z,780
2018-03-23T07:10:20.641Z,908
2018-03-23T07:11:02.510Z,1120
2018-03-23T07:11:43.832Z,1408
2018-03-23T07:12:24.365Z,1592
2018-03-23T07:13:04.702Z,1600
2018-03-23T07:13:45.042Z,1480
2018-03-23T07:14:27.024Z,1356
2018-03-23T07:15:07.336Z,1296
2018-03-23T07:19:11.879Z,1772
2018-03-23T07:20:01.769Z,1652
2018-03-23T07:20:45.067Z,1556
2018-03-23T07:21:42.074Z,1520
2018-03-23T07:25:24.717Z,1268
2018-03-23T07:26:09.044Z,1144
2018-03-23T07:29:57.668Z,940
2018-03-23T07:30:37.981Z,916
2018-03-23T07:31:18.950Z,888
2018-03-23T07:31:59.478Z,864
2018-03-23T07:32:40.298Z,856
2018-03-23T07:33:20.624Z,860
2018-03-23T07:34:01.049Z,872
2018-03-23T07:34:41.638Z,900
2018-03-23T07:35:22.285Z,952
2018-03-23T07:36:02.562Z,1016
2018-03-23T07:36:44.395Z,1076
2018-03-23T07:37:25.058Z,1144
2018-03-23T07:38:08.116Z,1200
2018-03-23T07:38:48.635Z,1248
2018-03-23T07:39:28.991Z,1304
2018-03-23T07:40:09.720Z,1328
2018-03-23T07:40:50.364Z,1312
2018-03-23T07:41:30.728Z,1304
2018-03-23T07:42:11.310Z,1324
2018-03-23T07:43:23.718Z,1348
2018-03-23T07:44:09.142Z,1368
2018-03-23T07:44:51.711Z,1364
2018-03-23T07:45:33.404Z,1364
2018-03-23T07:46:13.868Z,1388
2018-03-23T07:46:54.525Z,1432
2018-03-23T07:47:36.130Z,1504
2018-03-23T07:48:17.063Z,1592
2018-03-23T07:48:57.314Z,1664
2018-03-23T07:49:37.950Z,1700
2018-03-23T07:50:18.295Z,1732
2018-03-23T07:50:58.654Z,1752
2018-03-23T07:51:44.356Z,1796
2018-03-23T07:52:24.966Z,1824
2018-03-23T07:53:05.877Z,1832
2018-03-23T07:53:46.584Z,1840
2018-03-23T07:54:27.392Z,1840
2018-03-23T07:55:08.287Z,1812
2018-03-23T07:55:48.675Z,1784
2018-03-23T07:56:29.296Z,1760
2018-03-23T07:57:10.857Z,1732
2018-03-23T07:57:51.768Z,1728
2018-03-23T07:58:32.176Z,1708
2018-03-23T07:59:12.797Z,1708
2018-03-23T07:59:55.655Z,1692
2018-03-23T08:00:36.481Z,1700
2018-03-23T08:01:18.534Z,1720
2018-03-23T08:01:59.968Z,1744
2018-03-23T08:02:41.028Z,1768
2018-03-23T08:03:21.908Z,1784
2018-03-23T08:04:04.198Z,1812
2018-03-23T08:04:44.116Z,1848
2018-03-23T08:05:26.645Z,1884
2018-03-23T08:06:10.727Z,1916
2018-03-23T08:06:52.240Z,1964
2018-03-23T08:07:32.707Z,2028
2018-03-23T08:08:13.317Z,2120
2018-03-23T08:08:53.970Z,2188
2018-03-23T08:09:34.779Z,2228
2018-03-23T08:10:17.277Z,2236
2018-03-23T08:10:59.009Z,2228
2018-03-23T08:11:40.230Z,2232
2018-03-23T08:13:55.540Z,2252
2018-03-23T08:14:36.005Z,2316
2018-03-23T08:15:17.039Z,2444
2018-03-23T08:15:57.353Z,2344
2018-03-23T08:16:43.729Z,2540
2018-03-23T08:17:24.088Z,2796
2018-03-23T08:18:05.965Z,3092
2018-03-23T08:18:49.110Z,3224
2018-03-23T08:19:34.086Z,3040
2018-03-23T08:20:15.543Z,2972
2018-03-23T08:20:56.370Z,2924
2018-03-23T08:21:36.440Z,2860
2018-03-23T08:24:06.367Z,3040
2018-03-23T08:32:55.345Z,3976
2018-03-23T08:48:48.669Z,3976
2018-03-23T08:49:29.099Z,3684
2018-03-23T08:50:09.999Z,3616
2018-03-23T08:50:51.252Z,3868
2018-03-23T08:51:40.412Z,3768
2018-03-23T08:52:21.105Z,3576
2018-03-23T08:53:02.292Z,3508
2018-03-23T08:53:42.661Z,3492
2018-03-23T08:54:23.465Z,3500
2018-03-23T08:55:04.532Z,3548
2018-03-23T08:55:45.111Z,3516
2018-03-23T08:56:26.561Z,3380
2018-03-23T08:57:07.692Z,3312
2018-03-23T08:57:48.421Z,3304
2018-03-23T08:58:28.904Z,3392
2018-03-23T08:59:09.622Z,3544
2018-03-23T08:59:50.463Z,3584
2018-03-23T09:00:31.197Z,3456
2018-03-23T09:01:12.224Z,3416
2018-03-23T09:01:53.255Z,3380
2018-03-23T09:02:33.935Z,3120
2018-03-23T09:03:14.372Z,3036
2018-03-23T09:04:00.013Z,2892
2018-03-23T09:04:37.794Z,2768
2018-03-23T09:05:18.890Z,2616
2018-03-23T09:05:58.958Z,2580
2018-03-23T09:06:41.685Z,2604
2018-03-23T09:07:23.576Z,2556
2018-03-23T09:08:05.068Z,2480
2018-03-23T09:08:45.722Z,2452
2018-03-23T09:09:26.106Z,2460
2018-03-23T09:10:07.952Z,2496
2018-03-23T09:10:48.378Z,2572
2018-03-23T09:11:28.794Z,2608
2018-03-23T09:12:10.173Z,2652
2018-03-23T09:12:50.704Z,2624
2018-03-23T09:13:31.301Z,2600
2018-03-23T09:14:11.668Z,2560
2018-03-23T09:14:52.130Z,2512
2018-03-23T09:15:33.004Z,2468
2018-03-23T09:16:13.865Z,2432
2018-03-23T09:16:55.546Z,2392
2018-03-23T09:17:36.027Z,2340
2018-03-23T09:18:16.546Z,2308
2018-03-23T09:18:57.480Z,2288
2018-03-23T09:19:38.781Z,2292
2018-03-23T09:20:20.679Z,2312
2018-03-23T09:21:01.001Z,2328
2018-03-23T09:21:41.735Z,2352
2018-03-23T09:22:22.342Z,2360
2018-03-23T09:23:02.587Z,2356
2018-03-23T09:23:43.229Z,2348
2018-03-23T09:24:24.495Z,2324
2018-03-23T09:25:05.389Z,2292
2018-03-23T09:25:45.935Z,2280
2018-03-23T09:26:26.997Z,2288
2018-03-23T09:27:07.856Z,2340
2018-03-23T09:27:48.399Z,2400
2018-03-23T09:28:29.129Z,2468
2018-03-23T09:29:09.583Z,2536
2018-03-23T09:29:49.987Z,2572
2018-03-23T09:30:30.420Z,2596
2018-03-23T09:31:11.216Z,2636
2018-03-23T09:31:51.785Z,2692
2018-03-23T09:32:32.248Z,2760
2018-03-23T09:33:14.575Z,2828
2018-03-23T09:33:54.824Z,2876
2018-03-23T09:34:35.230Z,2892
2018-03-23T09:35:15.667Z,2908
2018-03-23T09:35:57.142Z,2920
2018-03-23T09:36:39.758Z,2944
2018-03-23T09:37:20.600Z,2964
2018-03-23T09:38:02.209Z,2996
2018-03-23T09:38:45.498Z,3028
2018-03-23T09:39:27.765Z,3012
2018-03-23T09:40:09.778Z,2936
2018-03-23T09:40:56.289Z,2784
2018-03-23T09:41:36.664Z,2700
2018-03-23T09:42:18.369Z,2616
2018-03-23T09:43:00.112Z,2572
2018-03-23T09:43:41.898Z,2548
2018-03-23T09:44:25.017Z,2528
2018-03-23T09:45:05.278Z,2516
2018-03-23T09:45:46.914Z,2488
2018-03-23T09:46:28.231Z,2488
2018-03-23T09:47:10.278Z,2536
2018-03-23T09:47:51.712Z,2616
2018-03-23T09:48:31.669Z,2632
2018-03-23T09:49:13.046Z,2644
2018-03-23T09:49:53.537Z,2644
2018-03-23T09:50:33.848Z,2620
2018-03-23T09:51:14.226Z,2600
2018-03-23T09:51:54.667Z,2624
2018-03-23T09:52:35.727Z,2680
2018-03-23T09:53:15.696Z,2752
2018-03-23T09:53:56.698Z,2728
2018-03-23T09:54:37.256Z,2676
2018-03-23T09:55:17.461Z,2608
2018-03-23T09:55:58.074Z,2440
2018-03-23T09:56:39.347Z,2260
2018-03-23T09:57:19.719Z,2132
2018-03-23T09:58:00.181Z,2080
2018-03-23T09:58:43.196Z,2084
2018-03-23T09:59:21.495Z,2012
2018-03-23T10:00:02.177Z,1896
2018-03-23T10:00:42.608Z,1792
2018-03-23T10:01:26.741Z,1780
2018-03-23T10:02:08.343Z,1804
2018-03-23T10:02:51.574Z,1756
2018-03-23T10:03:33.269Z,1696
2018-03-23T10:04:14.545Z,1616
2018-03-23T10:04:54.846Z,1544
2018-03-23T10:05:37.256Z,1504
2018-03-23T10:06:17.706Z,1492
2018-03-23T10:06:58.512Z,1480
2018-03-23T10:07:38.761Z,1484
2018-03-23T10:08:19.207Z,1472
2018-03-23T10:08:59.570Z,1444
2018-03-23T10:47:03.870Z,1164
2018-03-23T10:47:44.250Z,1136
2018-03-23T10:48:24.989Z,1132
2018-03-23T10:49:05.813Z,1108
2018-03-23T10:49:46.152Z,1132
2018-03-23T10:50:26.746Z,1232
2018-03-23T10:51:07.160Z,1340
2018-03-23T10:51:47.773Z,1340
2018-03-23T10:52:28.162Z,1352
2018-03-23T10:53:08.570Z,1312
2018-03-23T10:53:50.111Z,1332
2018-03-23T10:54:29.740Z,1344
2018-03-23T10:55:10.458Z,1300
2018-03-23T10:55:51.004Z,1236
2018-03-23T10:56:31.641Z,1220
2018-03-23T10:57:12.971Z,1212
2018-03-23T10:57:53.326Z,1172
2018-03-23T10:58:33.717Z,1120
2018-03-23T10:59:14.139Z,1064
2018-03-23T10:59:54.560Z,1036
2018-03-23T11:00:35.155Z,1028
2018-03-23T11:01:15.444Z,1004
2018-03-23T11:01:55.896Z,980
2018-03-23T11:02:39.077Z,972
2018-03-23T11:03:20.658Z,976
2018-03-23T11:04:00.689Z,1020
2018-03-23T11:04:41.127Z,1076
2018-03-23T11:05:21.796Z,1120
2018-03-23T11:06:02.717Z,1080
2018-03-23T11:06:43.946Z,1032
2018-03-23T11:07:24.776Z,1008
2018-03-23T11:08:05.663Z,976
2018-03-23T11:08:46.376Z,952
2018-03-23T11:09:26.877Z,932
2018-03-23T11:10:07.309Z,920
2018-03-23T11:10:47.788Z,908
2018-03-23T11:11:28.219Z,912
2018-03-23T11:12:08.663Z,912
2018-03-23T11:12:49.063Z,920
2018-03-23T11:13:29.366Z,924
2018-03-23T11:14:09.806Z,928
2018-03-23T11:16:38.051Z,1024
2018-03-23T11:17:18.512Z,1036
2018-03-23T11:17:58.984Z,1036
2018-03-23T11:18:39.501Z,1024
2018-03-23T11:19:33.513Z,1004
2018-03-23T11:20:20.501Z,1004
2018-03-23T11:21:15.901Z,1016
2018-03-23T11:22:11.336Z,1024
2018-03-23T11:23:06.279Z,1020
2018-03-23T11:23:46.690Z,1012
2018-03-23T11:24:27.127Z,1008
2018-03-23T11:25:07.505Z,1012
2018-03-23T11:25:47.985Z,1020
2018-03-23T11:29:42.237Z,1056
2018-03-23T11:32:02.956Z,1052
2018-03-23T11:32:43.321Z,1060
2018-03-23T11:33:44.076Z,1060
2018-03-23T11:34:39.315Z,1020
2018-03-23T11:35:34.314Z,996
2018-03-23T11:36:29.309Z,1020
2018-03-23T11:37:24.786Z,1016
2018-03-23T11:38:20.098Z,1000
2018-03-23T11:39:00.580Z,976
2018-03-23T11:39:40.977Z,948
2018-03-23T11:40:21.352Z,944
2018-03-23T11:41:16.659Z,936
2018-03-23T11:41:57.055Z,916
2018-03-23T11:42:40.517Z,892
2018-03-23T11:43:20.954Z,868
2018-03-23T11:44:16.041Z,888
2018-03-23T11:44:56.466Z,924
2018-03-23T11:45:51.355Z,944
2018-03-23T11:46:34.277Z,952